sensor_id;sensor_type;location;lat;lon;timestamp;pressure;altitude;pressure_sealevel;temperature;humidity
9676;BME280;4876;42.656;23.292;2023-03-25T00:00:09;94077.59;;;9.89;70.97
9676;BME280;4876;42.656;23.292;2023-03-25T00:02:40;94077.59;;;9.89;71.41
9676;BME280;4876;42.656;23.292;2023-03-25T00:05:10;94085.97;;;9.83;71.00
9676;BME280;4876;42.656;23.292;2023-03-25T00:07:39;94092.75;;;9.84;71.18
9676;BME280;4876;42.656;23.292;2023-03-25T00:10:07;94091.22;;;9.83;70.71
9676;BME280;4876;42.656;23.292;2023-03-25T00:12:34;94097.84;;;9.89;70.83
9676;BME280;4876;42.656;23.292;2023-03-25T00:15:01;94091.50;;;9.90;70.26
9676;BME280;4876;42.656;23.292;2023-03-25T00:17:28;94085.03;;;9.70;70.77
9676;BME280;4876;42.656;23.292;2023-03-25T00:19:57;94070.81;;;9.54;71.75
9676;BME280;4876;42.656;23.292;2023-03-25T00:22:25;94074.22;;;9.54;71.56
9676;BME280;4876;42.656;23.292;2023-03-25T00:24:52;94071.13;;;9.52;71.82
9676;BME280;4876;42.656;23.292;2023-03-25T00:27:19;94065.41;;;9.50;72.55
9676;BME280;4876;42.656;23.292;2023-03-25T00:29:46;94064.66;;;9.58;71.64
9676;BME280;4876;42.656;23.292;2023-03-25T00:32:14;94062.00;;;9.67;72.11
9676;BME280;4876;42.656;23.292;2023-03-25T00:34:41;94051.81;;;9.83;71.01
9676;BME280;4876;42.656;23.292;2023-03-25T00:37:13;94049.94;;;9.75;71.12
9676;BME280;4876;42.656;23.292;2023-03-25T00:39:42;94066.66;;;9.70;71.88
9676;BME280;4876;42.656;23.292;2023-03-25T00:42:10;94070.50;;;9.73;71.56
9676;BME280;4876;42.656;23.292;2023-03-25T00:44:38;94057.06;;;9.74;71.11
9676;BME280;4876;42.656;23.292;2023-03-25T00:47:05;94056.75;;;9.67;71.16
9676;BME280;4876;42.656;23.292;2023-03-25T00:49:32;94056.44;;;9.68;70.87
9676;BME280;4876;42.656;23.292;2023-03-25T00:51:59;94054.59;;;9.60;71.74
9676;BME280;4876;42.656;23.292;2023-03-25T00:54:27;94052.44;;;9.62;71.86
9676;BME280;4876;42.656;23.292;2023-03-25T00:56:54;94056.63;;;9.63;71.08
9676;BME280;4876;42.656;23.292;2023-03-25T00:59:24;94048.13;;;9.66;71.22
9676;BME280;4876;42.656;23.292;2023-03-25T01:01:51;94043.78;;;9.62;71.68
9676;BME280;4876;42.656;23.292;2023-03-25T01:04:20;94033.31;;;9.53;71.74
9676;BME280;4876;42.656;23.292;2023-03-25T01:06:50;94037.63;;;9.58;71.71
9676;BME280;4876;42.656;23.292;2023-03-25T01:09:19;94033.59;;;9.60;71.74
9676;BME280;4876;42.656;23.292;2023-03-25T01:11:47;94031.13;;;9.55;71.26
9676;BME280;4876;42.656;23.292;2023-03-25T01:14:16;94029.00;;;9.40;71.71
9676;BME280;4876;42.656;23.292;2023-03-25T01:16:43;94026.97;;;9.37;73.14
9676;BME280;4876;42.656;23.292;2023-03-25T01:19:11;94028.06;;;9.36;72.76
9676;BME280;4876;42.656;23.292;2023-03-25T01:21:39;94019.09;;;9.37;72.48
9676;BME280;4876;42.656;23.292;2023-03-25T01:24:07;94012.63;;;9.17;72.85
9676;BME280;4876;42.656;23.292;2023-03-25T01:26:36;94016.94;;;9.22;72.73
9676;BME280;4876;42.656;23.292;2023-03-25T01:29:07;94012.16;;;9.24;72.61
9676;BME280;4876;42.656;23.292;2023-03-25T01:31:34;94014.19;;;9.27;72.63
9676;BME280;4876;42.656;23.292;2023-03-25T01:34:01;94002.44;;;9.15;73.11
9676;BME280;4876;42.656;23.292;2023-03-25T01:36:28;94006.16;;;9.14;73.98
9676;BME280;4876;42.656;23.292;2023-03-25T01:38:55;93965.22;;;8.79;74.34
9676;BME280;4876;42.656;23.292;2023-03-25T01:41:23;94006.91;;;8.89;74.92
9676;BME280;4876;42.656;23.292;2023-03-25T01:44:08;93992.22;;;8.88;75.21
9676;BME280;4876;42.656;23.292;2023-03-25T01:46:37;93996.09;;;8.90;75.09
9676;BME280;4876;42.656;23.292;2023-03-25T01:49:13;93985.16;;;8.97;74.89
9676;BME280;4876;42.656;23.292;2023-03-25T01:51:43;93991.00;;;8.94;74.80
9676;BME280;4876;42.656;23.292;2023-03-25T01:54:11;93998.13;;;9.02;74.35
9676;BME280;4876;42.656;23.292;2023-03-25T01:56:44;94001.06;;;9.01;74.78
9676;BME280;4876;42.656;23.292;2023-03-25T01:59:16;94003.81;;;8.96;74.91
9676;BME280;4876;42.656;23.292;2023-03-25T02:01:44;93986.69;;;8.98;74.22
9676;BME280;4876;42.656;23.292;2023-03-25T02:04:12;93996.72;;;9.05;74.10
9676;BME280;4876;42.656;23.292;2023-03-25T02:06:42;93953.66;;;8.80;74.07
9676;BME280;4876;42.656;23.292;2023-03-25T02:09:11;93999.34;;;8.96;73.70
9676;BME280;4876;42.656;23.292;2023-03-25T02:11:39;93991.47;;;8.96;74.57
9676;BME280;4876;42.656;23.292;2023-03-25T02:14:07;93985.91;;;8.89;74.82
9676;BME280;4876;42.656;23.292;2023-03-25T02:16:44;93975.09;;;8.82;74.35
9676;BME280;4876;42.656;23.292;2023-03-25T02:19:43;93990.03;;;8.81;75.41
9676;BME280;4876;42.656;23.292;2023-03-25T02:22:42;93978.06;;;8.89;74.54
9676;BME280;4876;42.656;23.292;2023-03-25T02:25:45;93971.09;;;8.93;74.22
9676;BME280;4876;42.656;23.292;2023-03-25T02:28:26;93969.25;;;8.85;75.50
9676;BME280;4876;42.656;23.292;2023-03-25T02:31:36;93975.56;;;8.84;75.20
9676;BME280;4876;42.656;23.292;2023-03-25T02:34:36;93972.47;;;8.82;74.73
9676;BME280;4876;42.656;23.292;2023-03-25T02:37:42;93971.25;;;8.88;75.17
9676;BME280;4876;42.656;23.292;2023-03-25T02:40:13;93979.44;;;8.95;75.12
9676;BME280;4876;42.656;23.292;2023-03-25T02:42:47;93975.88;;;9.00;73.71
9676;BME280;4876;42.656;23.292;2023-03-25T02:45:21;93962.78;;;8.91;74.13
9676;BME280;4876;42.656;23.292;2023-03-25T02:47:53;93970.63;;;8.91;74.34
9676;BME280;4876;42.656;23.292;2023-03-25T02:50:24;93970.81;;;8.95;74.67
9676;BME280;4876;42.656;23.292;2023-03-25T02:52:56;93965.69;;;8.98;74.56
9676;BME280;4876;42.656;23.292;2023-03-25T02:55:48;93958.91;;;8.97;73.83
9676;BME280;4876;42.656;23.292;2023-03-25T02:58:19;93963.09;;;8.98;73.98
9676;BME280;4876;42.656;23.292;2023-03-25T03:00:48;93961.53;;;8.97;74.20
9676;BME280;4876;42.656;23.292;2023-03-25T03:03:16;93967.56;;;8.89;74.35
9676;BME280;4876;42.656;23.292;2023-03-25T03:05:44;93958.59;;;8.81;74.28
9676;BME280;4876;42.656;23.292;2023-03-25T03:08:24;93956.44;;;8.75;75.40
9676;BME280;4876;42.656;23.292;2023-03-25T03:11:08;93950.28;;;8.71;75.32
9676;BME280;4876;42.656;23.292;2023-03-25T03:13:59;93951.50;;;8.73;74.90
9676;BME280;4876;42.656;23.292;2023-03-25T03:16:33;93949.03;;;8.77;75.43
9676;BME280;4876;42.656;23.292;2023-03-25T03:19:13;93961.22;;;8.73;75.68
9676;BME280;4876;42.656;23.292;2023-03-25T03:21:53;93954.28;;;8.77;75.45
9676;BME280;4876;42.656;23.292;2023-03-25T03:24:30;93953.50;;;8.76;74.89
9676;BME280;4876;42.656;23.292;2023-03-25T03:27:01;93958.91;;;8.80;74.88
9676;BME280;4876;42.656;23.292;2023-03-25T03:29:35;93963.69;;;8.78;74.81
9676;BME280;4876;42.656;23.292;2023-03-25T03:32:06;93967.22;;;8.82;74.27
9676;BME280;4876;42.656;23.292;2023-03-25T03:34:39;93965.50;;;8.60;75.19
9676;BME280;4876;42.656;23.292;2023-03-25T03:37:10;93968.41;;;8.50;75.53
9676;BME280;4876;42.656;23.292;2023-03-25T03:39:40;93956.19;;;8.36;76.60
9676;BME280;4876;42.656;23.292;2023-03-25T03:42:11;93959.75;;;8.41;76.59
9676;BME280;4876;42.656;23.292;2023-03-25T03:44:42;93968.72;;;8.48;76.39
9676;BME280;4876;42.656;23.292;2023-03-25T03:47:15;93971.03;;;8.50;76.22
9676;BME280;4876;42.656;23.292;2023-03-25T03:49:46;93965.50;;;8.60;75.00
9676;BME280;4876;42.656;23.292;2023-03-25T03:52:18;93967.50;;;8.54;75.43
9676;BME280;4876;42.656;23.292;2023-03-25T03:54:51;93962.25;;;8.54;75.32
9676;BME280;4876;42.656;23.292;2023-03-25T03:57:23;93972.16;;;8.57;75.12
9676;BME280;4876;42.656;23.292;2023-03-25T03:59:58;93966.72;;;8.54;76.05
9676;BME280;4876;42.656;23.292;2023-03-25T04:02:33;93971.53;;;8.60;75.14
9676;BME280;4876;42.656;23.292;2023-03-25T04:05:04;93965.19;;;8.53;75.19
9676;BME280;4876;42.656;23.292;2023-03-25T04:07:33;93976.16;;;8.63;75.36
9676;BME280;4876;42.656;23.292;2023-03-25T04:10:12;93955.34;;;8.58;73.87
9676;BME280;4876;42.656;23.292;2023-03-25T04:12:42;93968.13;;;8.69;74.31
9676;BME280;4876;42.656;23.292;2023-03-25T04:15:11;93952.84;;;8.53;74.52
9676;BME280;4876;42.656;23.292;2023-03-25T04:17:40;93963.19;;;8.58;74.45
9676;BME280;4876;42.656;23.292;2023-03-25T04:20:09;93966.09;;;8.57;74.86
9676;BME280;4876;42.656;23.292;2023-03-25T04:22:39;93966.28;;;8.60;74.41
9676;BME280;4876;42.656;23.292;2023-03-25T04:25:11;93963.97;;;8.59;74.61
9676;BME280;4876;42.656;23.292;2023-03-25T04:27:39;93955.34;;;8.67;74.10
9676;BME280;4876;42.656;23.292;2023-03-25T04:30:10;93930.22;;;8.57;74.57
9676;BME280;4876;42.656;23.292;2023-03-25T04:32:37;93962.13;;;8.94;74.36
9676;BME280;4876;42.656;23.292;2023-03-25T04:35:04;93959.38;;;9.25;73.88
9676;BME280;4876;42.656;23.292;2023-03-25T04:37:33;93946.53;;;9.58;71.44
9676;BME280;4876;42.656;23.292;2023-03-25T04:40:07;93974.16;;;10.11;69.20
9676;BME280;4876;42.656;23.292;2023-03-25T04:42:35;93969.59;;;10.67;68.27
9676;BME280;4876;42.656;23.292;2023-03-25T04:45:03;93973.22;;;11.25;65.75
9676;BME280;4876;42.656;23.292;2023-03-25T04:47:30;93978.22;;;11.72;63.97
9676;BME280;4876;42.656;23.292;2023-03-25T04:49:57;93984.19;;;12.27;61.97
9676;BME280;4876;42.656;23.292;2023-03-25T04:52:24;93975.94;;;12.65;60.03
9676;BME280;4876;42.656;23.292;2023-03-25T04:54:50;93983.56;;;13.31;58.90
9676;BME280;4876;42.656;23.292;2023-03-25T04:57:17;93983.84;;;13.70;57.11
9676;BME280;4876;42.656;23.292;2023-03-25T04:59:46;93990.84;;;14.22;56.11
9676;BME280;4876;42.656;23.292;2023-03-25T05:02:15;93979.88;;;14.51;54.69
9676;BME280;4876;42.656;23.292;2023-03-25T05:04:42;93963.72;;;14.72;54.58
9676;BME280;4876;42.656;23.292;2023-03-25T05:07:11;93970.72;;;15.16;53.93
9676;BME280;4876;42.656;23.292;2023-03-25T05:09:40;93983.47;;;15.49;52.95
9676;BME280;4876;42.656;23.292;2023-03-25T05:12:08;93987.94;;;15.45;53.04
9676;BME280;4876;42.656;23.292;2023-03-25T05:14:35;93977.78;;;14.76;55.07
9676;BME280;4876;42.656;23.292;2023-03-25T05:17:04;93980.31;;;15.04;53.98
9676;BME280;4876;42.656;23.292;2023-03-25T05:19:30;93982.81;;;14.97;53.77
9676;BME280;4876;42.656;23.292;2023-03-25T05:21:59;93984.28;;;14.79;55.36
9676;BME280;4876;42.656;23.292;2023-03-25T05:24:27;93984.28;;;14.79;55.83
9676;BME280;4876;42.656;23.292;2023-03-25T05:26:53;93989.31;;;13.77;57.66
9676;BME280;4876;42.656;23.292;2023-03-25T05:29:20;93990.06;;;13.22;59.59
9676;BME280;4876;42.656;23.292;2023-03-25T05:31:47;93984.44;;;13.35;60.30
9676;BME280;4876;42.656;23.292;2023-03-25T05:34:16;93977.03;;;13.41;58.64
9676;BME280;4876;42.656;23.292;2023-03-25T05:36:48;93977.81;;;12.89;59.68
9676;BME280;4876;42.656;23.292;2023-03-25T05:39:15;93977.81;;;12.52;60.54
9676;BME280;4876;42.656;23.292;2023-03-25T05:41:42;93984.41;;;12.58;60.77
9676;BME280;4876;42.656;23.292;2023-03-25T05:44:10;93982.13;;;12.57;60.99
9676;BME280;4876;42.656;23.292;2023-03-25T05:46:45;93982.75;;;12.78;60.86
9676;BME280;4876;42.656;23.292;2023-03-25T05:49:12;93990.78;;;12.70;62.45
9676;BME280;4876;42.656;23.292;2023-03-25T05:51:43;93981.78;;;12.71;61.64
9676;BME280;4876;42.656;23.292;2023-03-25T05:54:10;93991.75;;;12.89;61.08
9676;BME280;4876;42.656;23.292;2023-03-25T05:56:40;93983.97;;;12.81;61.75
9676;BME280;4876;42.656;23.292;2023-03-25T05:59:09;93982.66;;;12.87;62.36
9676;BME280;4876;42.656;23.292;2023-03-25T06:01:38;93986.06;;;12.75;62.86
9676;BME280;4876;42.656;23.292;2023-03-25T06:04:10;93991.97;;;12.97;62.54
9676;BME280;4876;42.656;23.292;2023-03-25T06:06:39;93980.63;;;13.20;60.10
9676;BME280;4876;42.656;23.292;2023-03-25T06:09:06;93982.47;;;13.20;60.37
9676;BME280;4876;42.656;23.292;2023-03-25T06:11:33;93989.50;;;13.28;60.67
9676;BME280;4876;42.656;23.292;2023-03-25T06:14:02;93981.38;;;13.21;60.10
9676;BME280;4876;42.656;23.292;2023-03-25T06:16:30;93979.81;;;13.32;57.71
9676;BME280;4876;42.656;23.292;2023-03-25T06:18:58;93975.94;;;13.42;56.48
9676;BME280;4876;42.656;23.292;2023-03-25T06:21:26;93979.78;;;13.44;56.18
9676;BME280;4876;42.656;23.292;2023-03-25T06:23:56;93980.69;;;13.36;56.36
9676;BME280;4876;42.656;23.292;2023-03-25T06:26:24;93976.75;;;13.30;56.99
9676;BME280;4876;42.656;23.292;2023-03-25T06:28:51;93955.63;;;13.18;55.19
9676;BME280;4876;42.656;23.292;2023-03-25T06:31:20;93977.69;;;12.85;56.28
9676;BME280;4876;42.656;23.292;2023-03-25T06:33:51;93975.34;;;13.08;57.08
9676;BME280;4876;42.656;23.292;2023-03-25T06:36:18;93979.28;;;13.27;60.10
9676;BME280;4876;42.656;23.292;2023-03-25T06:38:46;93983.75;;;13.38;57.92
9676;BME280;4876;42.656;23.292;2023-03-25T06:41:16;93988.66;;;13.52;58.35
9676;BME280;4876;42.656;23.292;2023-03-25T06:43:44;93993.78;;;13.73;55.75
9676;BME280;4876;42.656;23.292;2023-03-25T06:46:11;93953.03;;;13.46;56.90
9676;BME280;4876;42.656;23.292;2023-03-25T06:48:38;93994.66;;;13.37;57.94
9676;BME280;4876;42.656;23.292;2023-03-25T06:51:06;93992.53;;;13.55;56.02
9676;BME280;4876;42.656;23.292;2023-03-25T06:53:32;93978.25;;;13.43;55.83
9676;BME280;4876;42.656;23.292;2023-03-25T06:55:59;94001.28;;;13.18;57.27
9676;BME280;4876;42.656;23.292;2023-03-25T06:58:27;93999.88;;;13.21;58.38
9676;BME280;4876;42.656;23.292;2023-03-25T07:00:59;94000.56;;;13.46;56.32
9676;BME280;4876;42.656;23.292;2023-03-25T07:03:28;93977.59;;;13.34;57.07
9676;BME280;4876;42.656;23.292;2023-03-25T07:06:03;93995.44;;;13.37;56.57
9676;BME280;4876;42.656;23.292;2023-03-25T07:08:49;94003.19;;;13.06;57.56
9676;BME280;4876;42.656;23.292;2023-03-25T07:11:24;93997.28;;;13.49;56.73
9676;BME280;4876;42.656;23.292;2023-03-25T07:13:53;93984.88;;;13.37;57.59
9676;BME280;4876;42.656;23.292;2023-03-25T07:16:20;93988.13;;;13.46;57.28
9676;BME280;4876;42.656;23.292;2023-03-25T07:18:47;93980.03;;;13.67;56.75
9676;BME280;4876;42.656;23.292;2023-03-25T07:21:14;93987.25;;;13.98;55.72
9676;BME280;4876;42.656;23.292;2023-03-25T07:23:41;93990.25;;;14.13;55.98
9676;BME280;4876;42.656;23.292;2023-03-25T07:26:08;93987.84;;;13.92;56.60
9676;BME280;4876;42.656;23.292;2023-03-25T07:28:35;93993.56;;;14.10;56.12
9676;BME280;4876;42.656;23.292;2023-03-25T07:31:06;93995.75;;;14.51;54.66
9676;BME280;4876;42.656;23.292;2023-03-25T07:33:33;93999.59;;;14.54;54.71
9676;BME280;4876;42.656;23.292;2023-03-25T07:36:00;93993.25;;;14.59;55.13
9676;BME280;4876;42.656;23.292;2023-03-25T07:38:27;93977.63;;;14.38;55.60
9676;BME280;4876;42.656;23.292;2023-03-25T07:40:54;93993.44;;;14.50;55.11
9676;BME280;4876;42.656;23.292;2023-03-25T07:43:21;93993.34;;;14.62;55.08
9676;BME280;4876;42.656;23.292;2023-03-25T07:45:48;93918.84;;;14.28;55.12
9676;BME280;4876;42.656;23.292;2023-03-25T07:48:19;93976.75;;;14.81;55.21
9676;BME280;4876;42.656;23.292;2023-03-25T07:50:55;93968.06;;;14.80;54.81
9676;BME280;4876;42.656;23.292;2023-03-25T07:53:22;93971.66;;;14.72;55.45
9676;BME280;4876;42.656;23.292;2023-03-25T07:55:49;93969.63;;;15.01;55.36
9676;BME280;4876;42.656;23.292;2023-03-25T07:58:16;93964.56;;;15.12;54.84
9676;BME280;4876;42.656;23.292;2023-03-25T08:00:43;93960.13;;;15.16;54.40
9676;BME280;4876;42.656;23.292;2023-03-25T08:03:10;93963.03;;;15.30;54.34
9676;BME280;4876;42.656;23.292;2023-03-25T08:05:43;93959.25;;;15.12;55.17
9676;BME280;4876;42.656;23.292;2023-03-25T08:08:10;93964.31;;;15.36;54.21
9676;BME280;4876;42.656;23.292;2023-03-25T08:10:37;93947.69;;;15.39;54.54
9676;BME280;4876;42.656;23.292;2023-03-25T08:13:04;93947.22;;;15.72;53.79
9676;BME280;4876;42.656;23.292;2023-03-25T08:15:31;93948.31;;;15.91;53.21
9676;BME280;4876;42.656;23.292;2023-03-25T08:17:57;93947.13;;;15.88;53.24
9676;BME280;4876;42.656;23.292;2023-03-25T08:20:25;93942.59;;;16.11;52.50
9676;BME280;4876;42.656;23.292;2023-03-25T08:22:56;93938.72;;;16.28;52.56
9676;BME280;4876;42.656;23.292;2023-03-25T08:25:31;93942.75;;;16.45;51.43
9676;BME280;4876;42.656;23.292;2023-03-25T08:28:00;93948.78;;;16.42;51.70
9676;BME280;4876;42.656;23.292;2023-03-25T08:30:27;93939.91;;;16.57;51.01
9676;BME280;4876;42.656;23.292;2023-03-25T08:32:53;93945.16;;;16.54;51.44
9676;BME280;4876;42.656;23.292;2023-03-25T08:35:21;93944.84;;;16.82;51.34
9676;BME280;4876;42.656;23.292;2023-03-25T08:37:48;93929.66;;;16.82;50.72
9676;BME280;4876;42.656;23.292;2023-03-25T08:40:17;93925.25;;;16.90;51.61
9676;BME280;4876;42.656;23.292;2023-03-25T08:42:44;93922.25;;;16.95;51.71
9676;BME280;4876;42.656;23.292;2023-03-25T08:45:11;93923.19;;;16.80;53.06
9676;BME280;4876;42.656;23.292;2023-03-25T08:47:39;93918.94;;;16.75;51.98
9676;BME280;4876;42.656;23.292;2023-03-25T08:50:07;93919.28;;;17.00;51.76
9676;BME280;4876;42.656;23.292;2023-03-25T08:52:38;93917.97;;;16.87;52.08
9676;BME280;4876;42.656;23.292;2023-03-25T08:55:09;93925.03;;;16.76;52.79
9676;BME280;4876;42.656;23.292;2023-03-25T08:57:37;93926.03;;;16.41;52.97
9676;BME280;4876;42.656;23.292;2023-03-25T09:00:05;93930.75;;;16.28;53.25
9676;BME280;4876;42.656;23.292;2023-03-25T09:02:36;93920.97;;;16.59;52.74
9676;BME280;4876;42.656;23.292;2023-03-25T09:05:04;93915.72;;;16.62;53.23
9676;BME280;4876;42.656;23.292;2023-03-25T09:07:31;93906.22;;;16.88;52.58
9676;BME280;4876;42.656;23.292;2023-03-25T09:09:58;93909.31;;;16.90;51.82
9676;BME280;4876;42.656;23.292;2023-03-25T09:12:25;93896.47;;;16.95;51.52
9676;BME280;4876;42.656;23.292;2023-03-25T09:14:53;93891.03;;;16.85;51.78
9676;BME280;4876;42.656;23.292;2023-03-25T09:17:20;93917.13;;;17.09;50.78
9676;BME280;4876;42.656;23.292;2023-03-25T09:19:46;93905.34;;;17.40;50.20
9676;BME280;4876;42.656;23.292;2023-03-25T09:22:13;93897.91;;;17.53;50.08
9676;BME280;4876;42.656;23.292;2023-03-25T09:24:40;93890.00;;;17.60;49.79
9676;BME280;4876;42.656;23.292;2023-03-25T09:27:07;93890.22;;;17.82;48.51
9676;BME280;4876;42.656;23.292;2023-03-25T09:29:35;93892.72;;;17.67;49.31
9676;BME280;4876;42.656;23.292;2023-03-25T09:32:03;93885.25;;;17.77;48.79
9676;BME280;4876;42.656;23.292;2023-03-25T09:34:30;93893.69;;;17.86;48.82
9676;BME280;4876;42.656;23.292;2023-03-25T09:36:57;93891.88;;;17.97;48.25
9676;BME280;4876;42.656;23.292;2023-03-25T09:39:24;93888.75;;;17.88;48.50
9676;BME280;4876;42.656;23.292;2023-03-25T09:42:06;93890.91;;;18.19;47.59
9676;BME280;4876;42.656;23.292;2023-03-25T09:44:38;93896.13;;;18.56;47.83
9676;BME280;4876;42.656;23.292;2023-03-25T09:47:13;93883.72;;;18.71;47.18
9676;BME280;4876;42.656;23.292;2023-03-25T09:49:43;93879.94;;;18.76;46.82
9676;BME280;4876;42.656;23.292;2023-03-25T09:52:14;93878.81;;;18.80;45.94
9676;BME280;4876;42.656;23.292;2023-03-25T09:54:46;93871.28;;;18.97;45.64
9676;BME280;4876;42.656;23.292;2023-03-25T09:57:17;93871.34;;;19.11;45.17
9676;BME280;4876;42.656;23.292;2023-03-25T09:59:47;93868.69;;;19.07;45.33
9676;BME280;4876;42.656;23.292;2023-03-25T10:02:27;93873.28;;;19.25;44.65
9676;BME280;4876;42.656;23.292;2023-03-25T10:05:09;93864.22;;;19.40;43.55
9676;BME280;4876;42.656;23.292;2023-03-25T10:07:46;93865.72;;;19.41;43.69
9676;BME280;4876;42.656;23.292;2023-03-25T10:10:25;93866.59;;;19.63;43.28
9676;BME280;4876;42.656;23.292;2023-03-25T10:12:59;93862.00;;;19.74;42.75
9676;BME280;4876;42.656;23.292;2023-03-25T10:15:33;93857.47;;;19.93;42.39
9676;BME280;4876;42.656;23.292;2023-03-25T10:18:18;93849.09;;;19.76;41.97
9676;BME280;4876;42.656;23.292;2023-03-25T10:20:51;93843.34;;;19.74;43.35
9676;BME280;4876;42.656;23.292;2023-03-25T10:23:29;93841.06;;;19.98;42.11
9676;BME280;4876;42.656;23.292;2023-03-25T10:26:03;93837.25;;;19.77;41.59
9676;BME280;4876;42.656;23.292;2023-03-25T10:28:34;93832.63;;;19.53;41.72
9676;BME280;4876;42.656;23.292;2023-03-25T10:31:03;93823.84;;;19.49;42.35
9676;BME280;4876;42.656;23.292;2023-03-25T10:33:35;93830.00;;;19.67;41.36
9676;BME280;4876;42.656;23.292;2023-03-25T10:36:03;93828.47;;;19.59;41.76
9676;BME280;4876;42.656;23.292;2023-03-25T10:38:33;93826.13;;;19.54;41.45
9676;BME280;4876;42.656;23.292;2023-03-25T10:41:12;93810.16;;;19.61;41.56
9676;BME280;4876;42.656;23.292;2023-03-25T10:43:41;93810.19;;;19.97;41.15
9676;BME280;4876;42.656;23.292;2023-03-25T10:46:13;93805.25;;;20.13;41.02
9676;BME280;4876;42.656;23.292;2023-03-25T10:48:46;93804.09;;;20.00;40.74
9676;BME280;4876;42.656;23.292;2023-03-25T10:51:15;93807.13;;;19.80;41.18
9676;BME280;4876;42.656;23.292;2023-03-25T10:53:46;93801.78;;;19.80;41.53
9676;BME280;4876;42.656;23.292;2023-03-25T10:56:16;93798.38;;;19.83;43.03
9676;BME280;4876;42.656;23.292;2023-03-25T10:58:46;93798.00;;;19.88;43.13
9676;BME280;4876;42.656;23.292;2023-03-25T11:01:16;93793.06;;;19.94;43.25
9676;BME280;4876;42.656;23.292;2023-03-25T11:03:48;93792.63;;;20.28;42.71
9676;BME280;4876;42.656;23.292;2023-03-25T11:06:21;93779.25;;;20.38;42.94
9676;BME280;4876;42.656;23.292;2023-03-25T11:09:12;93779.97;;;20.64;41.97
9676;BME280;4876;42.656;23.292;2023-03-25T11:11:40;93781.84;;;20.81;41.64
9676;BME280;4876;42.656;23.292;2023-03-25T11:14:09;93769.63;;;20.73;41.82
9676;BME280;4876;42.656;23.292;2023-03-25T11:16:40;93767.00;;;20.55;41.60
9676;BME280;4876;42.656;23.292;2023-03-25T11:19:15;93749.84;;;20.53;41.18
9676;BME280;4876;42.656;23.292;2023-03-25T11:21:45;93755.19;;;20.60;41.90
9676;BME280;4876;42.656;23.292;2023-03-25T11:24:14;93758.22;;;20.62;41.76
9676;BME280;4876;42.656;23.292;2023-03-25T11:26:44;93748.09;;;21.05;40.96
9676;BME280;4876;42.656;23.292;2023-03-25T11:29:15;93749.59;;;21.13;41.02
9676;BME280;4876;42.656;23.292;2023-03-25T11:31:42;93756.22;;;20.87;39.73
9676;BME280;4876;42.656;23.292;2023-03-25T11:34:17;93739.34;;;20.97;39.21
9676;BME280;4876;42.656;23.292;2023-03-25T11:36:50;93745.00;;;21.10;39.31
9676;BME280;4876;42.656;23.292;2023-03-25T11:39:25;93738.19;;;20.98;38.57
9676;BME280;4876;42.656;23.292;2023-03-25T11:41:54;93740.16;;;20.94;39.12
9676;BME280;4876;42.656;23.292;2023-03-25T11:44:25;93738.94;;;21.06;38.72
9676;BME280;4876;42.656;23.292;2023-03-25T11:46:55;93730.00;;;21.34;38.22
9676;BME280;4876;42.656;23.292;2023-03-25T11:49:25;93731.16;;;21.33;38.28
9676;BME280;4876;42.656;23.292;2023-03-25T11:51:59;93727.75;;;21.22;38.11
9676;BME280;4876;42.656;23.292;2023-03-25T11:54:27;93713.97;;;21.27;38.35
9676;BME280;4876;42.656;23.292;2023-03-25T11:56:54;93708.53;;;21.41;38.33
9676;BME280;4876;42.656;23.292;2023-03-25T11:59:23;93714.75;;;21.31;37.99
9676;BME280;4876;42.656;23.292;2023-03-25T12:02:00;93713.28;;;21.16;37.90
9676;BME280;4876;42.656;23.292;2023-03-25T12:04:29;93711.91;;;20.90;37.98
9676;BME280;4876;42.656;23.292;2023-03-25T12:06:59;93712.97;;;21.07;37.85
9676;BME280;4876;42.656;23.292;2023-03-25T12:09:27;93699.97;;;21.09;37.91
9676;BME280;4876;42.656;23.292;2023-03-25T12:12:20;93703.75;;;21.15;37.91
9676;BME280;4876;42.656;23.292;2023-03-25T12:14:57;93701.97;;;20.94;38.36
9676;BME280;4876;42.656;23.292;2023-03-25T12:17:36;93698.22;;;20.81;38.18
9676;BME280;4876;42.656;23.292;2023-03-25T12:20:14;93703.25;;;20.61;38.29
9676;BME280;4876;42.656;23.292;2023-03-25T12:23:01;93694.91;;;20.48;39.11
9676;BME280;4876;42.656;23.292;2023-03-25T12:25:36;93706.00;;;20.47;38.46
9676;BME280;4876;42.656;23.292;2023-03-25T12:31:25;93705.59;;;20.52;38.51
9676;BME280;4876;42.656;23.292;2023-03-25T12:34:04;93710.97;;;20.30;38.88
9676;BME280;4876;42.656;23.292;2023-03-25T12:36:51;93711.31;;;20.43;38.69
9676;BME280;4876;42.656;23.292;2023-03-25T12:39:39;93691.50;;;20.37;38.53
9676;BME280;4876;42.656;23.292;2023-03-25T12:42:20;93698.78;;;20.22;38.95
9676;BME280;4876;42.656;23.292;2023-03-25T12:45:20;93697.28;;;20.21;38.82
9676;BME280;4876;42.656;23.292;2023-03-25T12:47:54;93706.84;;;19.94;39.00
9676;BME280;4876;42.656;23.292;2023-03-25T12:50:34;93699.63;;;19.90;39.03
9676;BME280;4876;42.656;23.292;2023-03-25T12:53:20;93697.34;;;19.85;39.60
9676;BME280;4876;42.656;23.292;2023-03-25T12:55:58;93714.50;;;20.02;39.00
9676;BME280;4876;42.656;23.292;2023-03-25T12:58:41;93692.78;;;19.82;39.37
9676;BME280;4876;42.656;23.292;2023-03-25T13:01:18;93703.47;;;19.68;40.14
9676;BME280;4876;42.656;23.292;2023-03-25T13:04:08;93702.69;;;19.75;39.58
9676;BME280;4876;42.656;23.292;2023-03-25T13:06:41;93702.34;;;19.76;39.20
9676;BME280;4876;42.656;23.292;2023-03-25T13:09:17;93701.97;;;19.63;39.33
9676;BME280;4876;42.656;23.292;2023-03-25T13:11:49;93695.88;;;19.63;39.51
9676;BME280;4876;42.656;23.292;2023-03-25T13:14:20;93706.13;;;19.61;39.43
9676;BME280;4876;42.656;23.292;2023-03-25T13:16:50;93693.94;;;19.39;40.46
9676;BME280;4876;42.656;23.292;2023-03-25T13:19:22;93702.69;;;19.35;40.84
9676;BME280;4876;42.656;23.292;2023-03-25T13:21:54;93698.88;;;19.15;41.30
9676;BME280;4876;42.656;23.292;2023-03-25T13:24:29;93699.97;;;18.93;42.17
9676;BME280;4876;42.656;23.292;2023-03-25T13:27:01;93697.31;;;19.00;42.09
9676;BME280;4876;42.656;23.292;2023-03-25T13:29:34;93697.31;;;19.00;42.05
9676;BME280;4876;42.656;23.292;2023-03-25T13:32:07;93710.97;;;18.88;43.45
9676;BME280;4876;42.656;23.292;2023-03-25T13:34:41;93681.53;;;18.41;45.88
9676;BME280;4876;42.656;23.292;2023-03-25T13:37:13;93712.78;;;18.62;45.61
9676;BME280;4876;42.656;23.292;2023-03-25T13:42:48;93641.38;;;17.95;44.51